Time;durP1;ratioP1;P1;durP2;ratioP2;P2;SDS_P1;SDS_P2;PMS_P1;PMS_P2;Temp;Humidity;BMP_temperature;BMP_pressure;BME280_temperature;BME280_humidity;BME280_pressure;Samples;Min_cycle;Max_cycle;Signal;HPM_P1;HPM_P2
2022/01/27 00:05:41;;;;;;;95.43;39.17;;;;;;;4.14;59.39;96406.91;5029645;28;20128;-63
2022/01/27 00:08:14;;;;;;;98.82;43.00;;;;;;;5.05;58.41;96435.25;5028961;28;20017;-64
2022/01/27 00:10:52;;;;;;;90.97;40.00;;;;;;;5.01;57.51;96449.94;5035558;28;20097;-64
2022/01/27 00:13:23;;;;;;;96.80;43.28;;;;;;;5.86;56.43;96438.41;5012963;28;20444;-64
2022/01/27 00:15:58;;;;;;;88.68;41.25;;;;;;;5.73;55.59;96434.25;5029059;28;20474;-64
2022/01/27 00:18:23;;;;;;;90.40;39.03;;;;;;;4.80;57.12;96461.94;5029052;28;20512;-64
2022/01/27 00:20:49;;;;;;;90.10;38.63;;;;;;;3.61;60.95;96464.94;5029487;28;20104;-63
2022/01/27 00:23:15;;;;;;;91.07;40.22;;;;;;;3.55;61.99;96442.97;5029109;28;20092;-63
2022/01/27 00:25:41;;;;;;;86.00;39.33;;;;;;;3.88;60.96;96457.41;5035435;28;20025;-64
2022/01/27 00:28:07;;;;;;;80.35;38.25;;;;;;;3.04;63.13;96399.66;5034419;28;20037;-63
2022/01/27 00:30:37;;;;;;;94.13;42.53;;;;;;;3.84;62.20;96427.31;5029057;28;20026;-63
2022/01/27 00:33:04;;;;;;;89.90;39.88;;;;;;;3.75;61.18;96444.47;5029407;28;20120;-63
2022/01/27 00:35:31;;;;;;;88.03;41.17;;;;;;;4.16;60.04;96419.84;5027737;28;20658;-64
2022/01/27 00:37:57;;;;;;;88.78;41.30;;;;;;;4.31;59.00;96422.81;5028654;28;20030;-64
2022/01/27 00:40:22;;;;;;;85.72;37.33;;;;;;;3.57;60.26;96417.22;5032555;28;20078;-64
2022/01/27 00:42:48;;;;;;;90.07;36.63;;;;;;;3.75;60.20;96449.75;5038116;28;20483;-64
2022/01/27 00:45:14;;;;;;;77.95;31.63;;;;;;;2.60;63.97;96450.78;5019528;28;20060;-64
2022/01/27 00:47:39;;;;;;;87.43;39.20;;;;;;;2.35;65.34;96450.88;5028877;28;20117;-64
2022/01/27 00:50:05;;;;;;;88.63;39.63;;;;;;;2.76;63.72;96452.81;5030967;28;20033;-64
2022/01/27 00:52:39;;;;;;;86.30;34.50;;;;;;;2.34;64.95;96451.91;5032681;28;20040;-64
2022/01/27 00:55:07;;;;;;;78.00;33.13;;;;;;;2.64;64.50;96457.22;5034263;28;20025;-62
2022/01/27 01:00:05;;;;;;;89.57;39.83;;;;;;;2.61;63.16;96407.75;5041425;28;20018;-64
2022/01/27 01:07:38;;;;;;;92.45;37.10;;;;;;;2.49;65.24;96447.09;5032422;28;20036;-64
2022/01/27 01:15:20;;;;;;;82.03;36.17;;;;;;;2.70;63.56;96416.13;5032539;28;20025;-65
2022/01/27 01:18:23;;;;;;;;;;;;;;;2.93;64.14;96445.13;5032318;28;20032;-62
2022/01/27 01:31:44;;;;;;;99.22;42.72;;;;;;;4.82;57.83;96391.34;5031976;28;20167;-65
2022/01/27 01:34:15;;;;;;;107.03;43.28;;;;;;;4.63;57.32;96407.34;5031683;28;20037;-64
2022/01/27 01:36:54;;;;;;;101.15;45.20;;;;;;;4.38;58.33;96428.72;5031606;28;20035;-62
2022/01/27 01:39:22;;;;;;;94.70;41.13;;;;;;;3.59;60.32;96430.19;5031948;28;20021;-63
2022/01/27 01:41:47;;;;;;;100.70;41.92;;;;;;;3.64;60.43;96417.94;5038024;28;20407;-62
2022/01/27 01:44:12;;;;;;;101.45;42.65;;;;;;;3.58;60.69;96418.84;5038059;28;20025;-66
2022/01/27 01:46:38;;;;;;;94.65;41.78;;;;;;;3.72;59.89;96429.13;5026086;28;20080;-63
2022/01/27 01:49:05;;;;;;;96.85;40.60;;;;;;;2.93;62.11;96431.97;5031554;28;20026;-63
2022/01/27 01:51:33;;;;;;;87.05;40.30;;;;;;;3.16;61.87;96454.91;5031488;28;20445;-63
2022/01/27 01:53:59;;;;;;;96.07;40.60;;;;;;;3.28;61.71;96460.22;5031261;28;20049;-63
2022/01/27 01:56:25;;;;;;;91.68;41.58;;;;;;;3.41;61.63;96444.22;5037432;28;20029;-63
2022/01/27 01:58:51;;;;;;;99.53;43.90;;;;;;;3.74;60.46;96429.72;5026479;28;20056;-63
2022/01/27 02:01:17;;;;;;;93.45;42.65;;;;;;;3.59;60.09;96404.66;5030252;28;20030;-63
2022/01/27 02:03:44;;;;;;;96.55;42.60;;;;;;;3.79;59.90;96398.25;5031258;28;20048;-64
2022/01/27 02:06:19;;;;;;;93.93;42.80;;;;;;;4.72;57.80;96401.72;5031357;28;20021;-64
2022/01/27 02:09:08;;;;;;;93.45;41.53;;;;;;;5.51;56.48;96397.25;5031351;28;20022;-63
2022/01/27 02:19:53;;;;;;;90.97;42.20;;;;;;;3.92;59.23;96434.84;5031418;28;20071;-63
2022/01/27 02:22:19;;;;;;;88.60;38.60;;;;;;;3.79;59.40;96438.53;5030806;28;20029;-64
2022/01/27 02:24:45;;;;;;;90.45;40.83;;;;;;;3.60;60.45;96435.19;5013017;28;20171;-63
2022/01/27 02:27:11;;;;;;;97.70;41.60;;;;;;;3.78;59.90;96415.84;5015158;28;20116;-64
2022/01/27 02:29:36;;;;;;;92.80;38.60;;;;;;;3.79;58.81;96396.44;5035318;28;20025;-64
2022/01/27 02:32:03;;;;;;;95.30;40.30;;;;;;;3.52;59.49;96382.91;5030945;28;20345;-63
2022/01/27 02:34:28;;;;;;;91.20;40.08;;;;;;;2.78;61.59;96387.72;5030635;28;20021;-63
2022/01/27 02:36:54;;;;;;;98.22;40.33;;;;;;;2.56;63.30;96405.78;5030539;28;20029;-63
2022/01/27 02:39:20;;;;;;;101.65;42.47;;;;;;;2.58;63.14;96406.38;5029657;28;20025;-63
2022/01/27 02:41:48;;;;;;;101.88;41.83;;;;;;;2.39;64.53;96402.16;5036980;28;20029;-63
2022/01/27 02:44:29;;;;;;;106.70;43.92;;;;;;;2.80;63.44;96408.50;5013896;28;20029;-63
2022/01/27 02:46:55;;;;;;;117.03;47.60;;;;;;;2.75;62.50;96369.75;5030110;28;20041;-63
2022/01/27 02:49:20;;;;;;;110.82;46.03;;;;;;;2.81;62.60;96394.34;5012917;28;20044;-63
2022/01/27 02:51:46;;;;;;;121.95;44.03;;;;;;;2.45;64.56;96403.09;5012912;28;20107;-63
2022/01/27 02:54:11;;;;;;;118.50;46.22;;;;;;;2.09;65.29;96388.97;5030395;28;20040;-64
2022/01/27 02:56:43;;;;;;;124.72;48.00;;;;;;;2.34;64.46;96399.41;5018075;28;20122;-63
2022/01/27 02:59:09;;;;;;;122.00;48.25;;;;;;;2.78;63.79;96376.41;5019982;28;20032;-63
2022/01/27 03:01:34;;;;;;;120.70;49.83;;;;;;;3.24;62.58;96394.09;5058569;22;20041;-61
2022/01/27 03:04:00;;;;;;;125.78;49.08;;;;;;;2.97;63.03;96387.63;5049711;28;20025;-60
2022/01/27 03:06:25;;;;;;;125.95;48.97;;;;;;;3.10;61.59;96369.84;5049802;28;20025;-60
2022/01/27 03:08:50;;;;;;;125.18;48.78;;;;;;;3.42;61.22;96395.03;5048812;28;20032;-61
2022/01/27 03:11:41;;;;;;;125.80;49.15;;;;;;;4.17;59.94;96380.09;5053136;28;20398;-61
2022/01/27 03:14:07;;;;;;;123.55;50.65;;;;;;;4.66;58.42;96342.84;5040867;28;20040;-61
2022/01/27 03:16:33;;;;;;;122.90;49.08;;;;;;;5.00;57.56;96353.41;5048031;28;20115;-60
2022/01/27 03:18:58;;;;;;;115.32;49.05;;;;;;;4.68;56.79;96351.31;5049930;28;20116;-61
2022/01/27 03:21:23;;;;;;;121.15;48.35;;;;;;;4.18;57.42;96339.56;5047589;28;20056;-61
2022/01/27 03:23:49;;;;;;;123.85;49.08;;;;;;;5.03;56.28;96356.38;5047260;28;20029;-60
2022/01/27 03:26:14;;;;;;;125.18;48.88;;;;;;;5.28;55.89;96336.75;5052452;28;20077;-61
2022/01/27 03:28:40;;;;;;;119.75;50.15;;;;;;;5.05;54.71;96332.41;5059637;28;20378;-61
2022/01/27 03:31:05;;;;;;;112.53;47.38;;;;;;;5.58;54.98;96363.59;5049656;28;20021;-61
2022/01/27 03:33:31;;;;;;;117.28;48.63;;;;;;;5.13;54.67;96330.19;5049233;28;20033;-61
2022/01/27 03:35:56;;;;;;;124.95;50.00;;;;;;;5.46;54.82;96361.00;5049583;28;20036;-61
2022/01/27 03:38:22;;;;;;;116.28;47.97;;;;;;;5.48;53.87;96372.16;5049211;28;20025;-61
2022/01/27 03:40:47;;;;;;;104.57;46.17;;;;;;;5.35;54.82;96314.41;5049219;28;20557;-61
2022/01/27 03:43:12;;;;;;;114.07;46.53;;;;;;;5.67;53.96;96351.56;5055840;28;20025;-61
2022/01/27 03:45:39;;;;;;;110.75;45.55;;;;;;;5.59;54.32;96357.25;5049380;28;20037;-61
2022/01/27 03:48:05;;;;;;;115.82;47.90;;;;;;;5.37;53.44;96312.31;5049028;28;20033;-61
2022/01/27 03:50:31;;;;;;;119.78;49.47;;;;;;;5.34;53.27;96351.59;5049354;28;20034;-61
2022/01/27 03:52:56;;;;;;;120.35;49.30;;;;;;;5.17;53.67;96326.03;5047740;28;20029;-61
2022/01/27 03:55:22;;;;;;;128.27;51.88;;;;;;;5.03;53.67;96332.66;5048933;28;20033;-61
2022/01/27 03:57:47;;;;;;;139.75;51.75;;;;;;;5.21;54.03;96353.50;5055567;28;20085;-61
2022/01/27 04:00:13;;;;;;;127.32;50.88;;;;;;;5.22;53.60;96363.03;5056081;28;20455;-61
2022/01/27 04:02:51;;;;;;;122.25;49.05;;;;;;;5.30;53.61;96367.09;5049018;28;20024;-61
2022/01/27 04:05:18;;;;;;;118.47;47.25;;;;;;;5.28;53.62;96360.47;5049240;28;20540;-61
2022/01/27 04:07:44;;;;;;;126.57;49.97;;;;;;;5.33;53.77;96371.13;5048893;28;20655;-62
2022/01/27 04:10:10;;;;;;;114.97;47.38;;;;;;;5.19;53.37;96354.78;5049244;28;20032;-60
2022/01/27 04:12:35;;;;;;;121.13;46.78;;;;;;;4.83;53.47;96329.69;5054005;28;20041;-61
2022/01/27 04:15:00;;;;;;;120.05;49.55;;;;;;;5.14;53.59;96358.16;5055883;28;20669;-61
2022/01/27 04:17:26;;;;;;;108.88;46.55;;;;;;;5.09;53.67;96323.78;5048744;28;20029;-61
2022/01/27 04:19:51;;;;;;;117.72;46.85;;;;;;;4.76;53.86;96350.94;5049070;28;20100;-61
2022/01/27 04:22:17;;;;;;;111.38;46.88;;;;;;;4.08;55.14;96291.97;5049174;28;20041;-61
2022/01/27 04:24:43;;;;;;;113.38;48.50;;;;;;;4.36;55.62;96335.19;5049898;28;20063;-61
2022/01/27 04:27:16;;;;;;;109.30;46.03;;;;;;;3.95;56.43;96302.00;5059108;28;20033;-61
2022/01/27 04:29:42;;;;;;;115.50;45.38;;;;;;;3.97;56.04;96329.66;5059791;28;20021;-61
2022/01/27 04:32:09;;;;;;;114.30;48.22;;;;;;;3.49;57.17;96324.72;5052813;28;20523;-61
2022/01/27 04:34:37;;;;;;;112.35;47.80;;;;;;;4.28;56.40;96338.97;5052590;28;20025;-61
2022/01/27 04:37:04;;;;;;;133.50;52.25;;;;;;;4.58;55.28;96337.94;5051334;28;20522;-60
2022/01/27 04:39:38;;;;;;;121.15;47.60;;;;;;;4.72;55.02;96330.56;5052940;28;20068;-60
2022/01/27 04:42:11;;;;;;;119.63;48.33;;;;;;;4.76;54.95;96329.84;5059274;28;20394;-59
2022/01/27 04:45:02;;;;;;;115.00;48.13;;;;;;;4.80;54.83;96325.66;5052209;28;20029;-59
2022/01/27 04:47:29;;;;;;;111.60;47.83;;;;;;;3.97;55.78;96311.25;5045895;28;20036;-62
2022/01/27 04:49:56;;;;;;;121.93;47.40;;;;;;;4.41;55.60;96315.00;5052728;28;20029;-60
2022/01/27 04:52:22;;;;;;;101.05;44.15;;;;;;;4.74;55.17;96317.94;5052357;28;20066;-61
2022/01/27 04:55:02;;;;;;;98.70;44.38;;;;;;;4.84;54.98;96294.38;5052433;28;20033;-61
2022/01/27 04:57:29;;;;;;;111.20;45.38;;;;;;;4.67;54.94;96310.97;5057282;28;20082;-62
2022/01/27 04:59:54;;;;;;;103.70;44.45;;;;;;;3.86;55.05;96262.88;5059036;28;20024;-60
2022/01/27 05:02:36;;;;;;;97.78;43.60;;;;;;;3.52;55.86;96269.00;5051062;28;20044;-61
2022/01/27 05:05:03;;;;;;;102.13;43.92;;;;;;;4.36;55.57;96309.63;5052483;28;20040;-60
2022/01/27 05:07:28;;;;;;;102.03;42.95;;;;;;;4.26;55.11;96253.34;5051764;28;20508;-62
2022/01/27 05:09:59;;;;;;;100.00;43.30;;;;;;;4.74;55.10;96307.38;5052382;28;20060;-60
2022/01/27 05:12:38;;;;;;;102.32;45.10;;;;;;;4.59;54.67;96306.06;5057221;28;20025;-62
2022/01/27 05:15:04;;;;;;;97.60;44.13;;;;;;;3.81;55.67;96290.91;5059055;28;20104;-60
2022/01/27 05:17:29;;;;;;;96.88;43.75;;;;;;;3.92;55.65;96269.81;5050300;28;20120;-62
2022/01/27 05:19:55;;;;;;;94.10;42.83;;;;;;;4.32;55.18;96289.25;5052345;28;20044;-62
2022/01/27 05:22:20;;;;;;;93.05;42.17;;;;;;;4.44;54.81;96261.00;5052037;28;20553;-60
2022/01/27 05:24:45;;;;;;;93.68;43.08;;;;;;;4.78;54.62;96290.84;5050704;28;20040;-60
2022/01/27 05:27:11;;;;;;;101.65;43.33;;;;;;;4.69;54.34;96277.25;5058070;28;20048;-60
2022/01/27 05:29:36;;;;;;;98.95;43.00;;;;;;;4.82;54.00;96270.91;5051823;28;20033;-62
2022/01/27 05:32:02;;;;;;;107.40;46.15;;;;;;;4.69;53.94;96281.72;5051824;28;20363;-60
2022/01/27 05:34:28;;;;;;;103.63;44.20;;;;;;;4.82;53.93;96270.09;5051339;28;20044;-60
2022/01/27 05:36:53;;;;;;;97.95;43.15;;;;;;;4.82;53.74;96260.34;5051035;28;20032;-59
2022/01/27 05:39:19;;;;;;;112.95;47.15;;;;;;;4.82;53.84;96278.81;5051692;28;20029;-66
2022/01/27 05:41:44;;;;;;;116.25;48.92;;;;;;;4.88;53.82;96275.19;5051495;28;20515;-60
2022/01/27 05:44:09;;;;;;;106.28;43.50;;;;;;;4.89;53.65;96253.06;5051038;28;20481;-62
2022/01/27 05:46:35;;;;;;;109.90;44.65;;;;;;;4.92;53.07;96244.69;5051316;28;20052;-61
2022/01/27 05:49:01;;;;;;;106.88;45.03;;;;;;;5.02;52.31;96262.50;5051533;28;20040;-62
2022/01/27 05:51:26;;;;;;;98.35;41.22;;;;;;;4.88;52.47;96242.78;5051013;28;20445;-63
2022/01/27 05:53:52;;;;;;;95.95;42.80;;;;;;;5.08;52.60;96280.00;5051214;28;20064;-61
2022/01/27 05:56:17;;;;;;;105.40;43.05;;;;;;;3.90;53.73;96271.09;5050974;28;20033;-61
2022/01/27 05:58:43;;;;;;;98.90;43.05;;;;;;;3.77;54.13;96237.94;5058007;28;20044;-61
2022/01/27 06:01:08;;;;;;;97.90;43.40;;;;;;;3.91;54.62;96284.03;5051377;28;20119;-61
2022/01/27 06:03:34;;;;;;;105.20;41.97;;;;;;;3.63;55.11;96282.16;5051297;28;20025;-63
2022/01/27 06:05:59;;;;;;;96.63;40.72;;;;;;;3.31;56.75;96286.97;5051417;28;20811;-62
2022/01/27 06:08:28;;;;;;;95.93;40.28;;;;;;;2.44;58.98;96255.25;5051042;28;20036;-61
2022/01/27 06:10:54;;;;;;;87.55;39.35;;;;;;;2.16;59.09;96221.75;5051043;28;20021;-60
2022/01/27 06:13:19;;;;;;;85.70;37.78;;;;;;;1.75;60.70;96220.69;5057509;28;20513;-62
2022/01/27 06:15:45;;;;;;;96.53;40.70;;;;;;;2.07;60.15;96231.75;5051005;28;20072;-61
2022/01/27 06:18:10;;;;;;;90.00;39.63;;;;;;;1.90;61.39;96243.09;5050966;28;20036;-60
2022/01/27 06:20:37;;;;;;;93.50;39.88;;;;;;;1.94;60.39;96199.63;5050866;28;20034;-60
2022/01/27 06:23:03;;;;;;;95.63;41.35;;;;;;;2.75;59.63;96240.22;5050755;28;20028;-61
2022/01/27 06:25:30;;;;;;;93.78;40.42;;;;;;;2.55;59.79;96254.47;5049467;28;20029;-60
2022/01/27 06:27:56;;;;;;;88.88;39.90;;;;;;;2.26;60.88;96268.44;5056891;28;20032;-60
2022/01/27 06:30:22;;;;;;;97.07;41.60;;;;;;;2.59;59.02;96208.34;5057540;28;20096;-60
2022/01/27 06:32:47;;;;;;;96.93;40.45;;;;;;;2.11;60.80;96249.69;5050300;28;20021;-61
2022/01/27 06:35:13;;;;;;;93.45;40.55;;;;;;;2.17;61.03;96259.28;5050815;28;20029;-62
2022/01/27 06:37:41;;;;;;;93.78;40.78;;;;;;;1.71;61.84;96202.97;5050241;28;20025;-62
2022/01/27 06:40:07;;;;;;;88.93;38.00;;;;;;;1.77;62.08;96275.53;5050662;28;20107;-62
2022/01/27 06:42:32;;;;;;;88.70;40.70;;;;;;;2.18;62.04;96237.25;5055620;28;20135;-62
2022/01/27 06:44:58;;;;;;;94.95;41.15;;;;;;;1.76;59.63;96140.16;5050840;28;20075;-61
2022/01/27 06:47:23;;;;;;;104.75;42.45;;;;;;;2.58;58.73;96201.50;5049297;28;20029;-60
2022/01/27 06:49:49;;;;;;;108.82;43.72;;;;;;;2.83;58.79;96234.63;5050264;28;20025;-59
2022/01/27 06:52:14;;;;;;;89.05;41.33;;;;;;;3.28;57.84;96276.13;5050016;28;20025;-58
2022/01/27 06:54:40;;;;;;;101.20;42.03;;;;;;;3.34;57.57;96238.38;5049513;28;20654;-59
2022/01/27 06:57:06;;;;;;;93.15;39.63;;;;;;;3.21;57.14;96270.16;5049276;28;20033;-59
2022/01/27 06:59:32;;;;;;;91.03;39.53;;;;;;;2.71;58.25;96225.94;5056834;28;20021;-60
2022/01/27 07:01:57;;;;;;;89.82;38.40;;;;;;;2.35;58.23;96183.06;5049666;28;20033;-63
2022/01/27 07:04:23;;;;;;;80.60;35.53;;;;;;;3.16;57.66;96246.41;5050091;28;20104;-59
2022/01/27 07:06:49;;;;;;;77.03;36.63;;;;;;;2.60;58.31;96236.19;5049861;28;20741;-59
2022/01/27 07:09:14;;;;;;;70.90;34.25;;;;;;;2.88;57.95;96229.50;5050248;28;20035;-58
2022/01/27 07:11:40;;;;;;;71.85;33.47;;;;;;;2.28;59.57;96238.31;5049807;28;20024;-60
2022/01/27 07:14:05;;;;;;;74.25;33.10;;;;;;;2.17;59.13;96248.78;5054627;28;20033;-58
2022/01/27 07:16:33;;;;;;;60.58;31.50;;;;;;;2.37;58.12;96217.78;5049309;28;20060;-58
2022/01/27 07:18:58;;;;;;;66.18;32.85;;;;;;;2.83;57.32;96232.00;5057699;28;20039;-59
2022/01/27 07:21:24;;;;;;;66.78;32.35;;;;;;;2.78;56.99;96226.63;5049723;28;20530;-59
2022/01/27 07:23:49;;;;;;;65.13;31.15;;;;;;;3.06;57.49;96249.59;5049399;28;20036;-58
2022/01/27 07:26:15;;;;;;;63.80;31.38;;;;;;;2.92;57.56;96251.69;5048092;28;20507;-58
2022/01/27 07:28:41;;;;;;;65.40;30.92;;;;;;;3.22;56.22;96227.06;5064193;28;20021;-58
2022/01/27 07:31:06;;;;;;;64.75;32.25;;;;;;;3.72;55.35;96231.78;5048067;28;20024;-58
2022/01/27 07:33:32;;;;;;;61.83;30.88;;;;;;;3.74;54.84;96248.16;5047796;28;20025;-58
2022/01/27 07:35:57;;;;;;;57.30;30.48;;;;;;;3.67;55.25;96218.53;5049645;28;20123;-58
2022/01/27 07:38:23;;;;;;;60.05;29.63;;;;;;;3.34;54.97;96225.25;5047603;28;20032;-60
2022/01/27 07:40:49;;;;;;;54.47;28.77;;;;;;;2.24;58.72;96228.47;5049314;28;20056;-58
2022/01/27 07:43:15;;;;;;;52.38;27.80;;;;;;;2.31;57.93;96210.81;5055414;28;20055;-60
2022/01/27 07:45:41;;;;;;;53.10;29.40;;;;;;;3.20;57.33;96227.31;5049240;28;20029;-59
2022/01/27 07:48:07;;;;;;;52.25;28.35;;;;;;;3.37;55.95;96241.34;5029013;28;20026;-59
2022/01/27 07:50:33;;;;;;;52.75;26.98;;;;;;;3.75;54.77;96236.59;5029501;28;20518;-59
2022/01/27 07:52:58;;;;;;;47.70;26.23;;;;;;;3.53;54.59;96208.28;5029066;28;20164;-58
2022/01/27 07:55:23;;;;;;;46.13;24.42;;;;;;;3.33;55.52;96218.38;5029178;28;20104;-59
2022/01/27 07:57:49;;;;;;;44.28;25.42;;;;;;;3.74;55.39;96253.41;5048193;28;20409;-61
2022/01/27 08:00:15;;;;;;;43.55;24.02;;;;;;;3.64;54.74;96246.13;5054364;28;20025;-60
2022/01/27 08:02:41;;;;;;;36.10;20.92;;;;;;;3.24;55.61;96253.94;5047914;28;20044;-59
2022/01/27 08:05:07;;;;;;;31.05;20.65;;;;;;;3.95;54.99;96255.41;5048848;28;20396;-59
2022/01/27 08:07:32;;;;;;;34.55;20.90;;;;;;;4.40;53.63;96233.53;5047447;28;20021;-59
2022/01/27 08:09:58;;;;;;;29.45;19.75;;;;;;;4.91;51.80;96258.09;5049270;28;20076;-59
2022/01/27 08:12:23;;;;;;;34.47;20.00;;;;;;;5.45;50.78;96227.47;5051775;28;20033;-59
2022/01/27 08:14:49;;;;;;;27.80;19.67;;;;;;;5.92;49.51;96245.50;5051030;28;20522;-59
2022/01/27 08:17:16;;;;;;;33.03;19.23;;;;;;;5.72;48.35;96224.91;5047197;28;20086;-59
2022/01/27 08:19:42;;;;;;;30.75;18.70;;;;;;;6.02;47.56;96236.09;5047721;28;20032;-58
2022/01/27 08:22:07;;;;;;;30.02;19.10;;;;;;;6.02;48.81;96231.63;5048967;28;20025;-60
2022/01/27 08:24:33;;;;;;;26.27;17.80;;;;;;;6.55;47.72;96213.34;5048846;28;20029;-59
2022/01/27 08:27:03;;;;;;;22.05;15.82;;;;;;;6.20;46.70;96199.59;5048162;28;20025;-59
2022/01/27 08:29:35;;;;;;;21.40;13.88;;;;;;;5.68;47.16;96223.81;5056156;28;20334;-59
2022/01/27 08:32:06;;;;;;;20.65;13.77;;;;;;;5.92;47.40;96208.53;5048803;28;20021;-59
2022/01/27 08:34:36;;;;;;;22.15;13.50;;;;;;;6.85;46.45;96191.63;5048403;28;20486;-59
2022/01/27 08:37:07;;;;;;;16.85;12.63;;;;;;;6.86;45.31;96238.19;5048456;28;20025;-59
2022/01/27 08:39:33;;;;;;;15.13;11.65;;;;;;;7.25;44.79;96212.25;5047420;28;20029;-62
2022/01/27 08:41:59;;;;;;;14.95;11.32;;;;;;;6.72;44.81;96230.69;5049013;28;20419;-59
2022/01/27 08:44:24;;;;;;;14.52;10.88;;;;;;;6.88;43.90;96191.94;5054114;28;20363;-59
2022/01/27 08:46:50;;;;;;;14.60;11.15;;;;;;;6.39;45.26;96228.28;5046982;28;20112;-59
2022/01/27 08:49:18;;;;;;;17.33;11.40;;;;;;;6.56;43.83;96215.75;5048984;28;20060;-62
2022/01/27 08:51:43;;;;;;;12.70;10.45;;;;;;;6.08;45.38;96214.75;5047551;28;20029;-62
2022/01/27 08:54:09;;;;;;;13.23;10.73;;;;;;;5.78;45.86;96209.91;5047341;28;20037;-60
2022/01/27 08:56:34;;;;;;;14.88;10.10;;;;;;;5.56;46.84;96236.31;5048139;28;20554;-61
2022/01/27 08:59:00;;;;;;;13.88;10.20;;;;;;;5.84;46.54;96221.38;5056657;28;20028;-61
2022/01/27 09:01:27;;;;;;;11.52;9.70;;;;;;;6.13;45.85;96238.59;5067355;22;20045;-63
2022/01/27 09:03:53;;;;;;;12.38;9.50;;;;;;;5.77;46.69;96233.94;5030223;28;20111;-63
2022/01/27 09:06:19;;;;;;;10.52;8.95;;;;;;;5.81;46.44;96229.75;5030684;28;20416;-64
2022/01/27 09:08:46;;;;;;;13.63;9.10;;;;;;;5.79;46.67;96239.78;5030805;28;20025;-64
2022/01/27 09:11:12;;;;;;;10.75;9.00;;;;;;;6.21;45.32;96234.72;5032676;28;20021;-64
2022/01/27 09:13:38;;;;;;;12.40;9.15;;;;;;;6.56;44.18;96213.13;5051223;28;20644;-63
2022/01/27 09:16:05;;;;;;;12.93;9.75;;;;;;;7.17;43.08;96216.22;5052033;28;20040;-64
2022/01/27 09:18:32;;;;;;;10.30;9.18;;;;;;;7.47;42.86;96209.47;5051932;28;20481;-64
2022/01/27 09:21:01;;;;;;;10.20;8.02;;;;;;;7.28;43.29;96220.50;5051109;28;20029;-64
2022/01/27 09:23:27;;;;;;;8.15;7.35;;;;;;;7.26;43.05;96212.00;5051668;28;20489;-64
2022/01/27 09:25:56;;;;;;;10.35;9.02;;;;;;;7.53;42.33;96200.50;5050668;28;20173;-64
2022/01/27 09:28:22;;;;;;;11.32;8.75;;;;;;;7.95;41.04;96196.94;5051028;28;20032;-67
2022/01/27 09:30:47;;;;;;;8.32;7.15;;;;;;;7.32;42.43;96206.75;5039487;28;20021;-66
2022/01/27 09:33:13;;;;;;;11.30;7.10;;;;;;;7.85;40.88;96188.97;5052043;28;20082;-68
2022/01/27 09:35:39;;;;;;;8.20;6.45;;;;;;;7.23;41.84;96201.94;5052537;28;20086;-66
2022/01/27 09:38:05;;;;;;;6.43;5.47;;;;;;;7.59;40.99;96203.97;5052350;28;20021;-67
2022/01/27 09:40:33;;;;;;;6.72;5.90;;;;;;;7.96;40.71;96206.50;5051874;28;20028;-66
2022/01/27 09:42:59;;;;;;;8.02;5.47;;;;;;;7.71;40.45;96178.84;5051486;28;20036;-69
2022/01/27 09:45:27;;;;;;;9.05;4.93;;;;;;;7.55;40.30;96208.97;5036286;28;20025;-66
2022/01/27 09:47:57;;;;;;;8.85;5.43;;;;;;;7.81;39.26;96184.19;5035407;28;20021;-65
2022/01/27 09:53:01;;;;;;;8.98;4.57;;;;;;;8.21;37.82;96209.19;5051434;28;20496;-66
2022/01/27 09:55:26;;;;;;;4.57;3.70;;;;;;;8.02;38.10;96219.47;5051058;28;20029;-66
2022/01/27 09:57:54;;;;;;;6.90;3.40;;;;;;;7.71;37.99;96202.69;5050587;28;20520;-66
2022/01/27 10:00:21;;;;;;;7.35;3.53;;;;;;;7.54;38.09;96163.19;5034262;28;20017;-66
2022/01/27 10:03:04;;;;;;;6.25;3.55;;;;;;;7.50;38.24;96198.38;5041278;28;20438;-66
2022/01/27 10:05:29;;;;;;;6.03;3.08;;;;;;;7.83;37.38;96199.84;5049884;28;20672;-66
2022/01/27 10:08:04;;;;;;;6.90;3.03;;;;;;;8.19;36.98;96189.31;5049521;28;20086;-66
2022/01/27 10:10:35;;;;;;;5.35;3.03;;;;;;;8.11;37.01;96169.44;5051191;28;20429;-64
2022/01/27 10:13:03;;;;;;;4.10;3.22;;;;;;;8.87;35.55;96159.94;5050560;28;20043;-65
2022/01/27 10:15:29;;;;;;;3.83;2.78;;;;;;;8.24;36.46;96160.97;5042266;28;20036;-64
2022/01/27 10:18:18;;;;;;;13.88;2.50;;;;;;;8.56;35.97;96162.59;5050296;28;20025;-65
2022/01/27 10:21:08;;;;;;;3.60;2.80;;;;;;;9.07;34.65;96160.69;5051015;28;20079;-65
2022/01/27 10:23:37;;;;;;;5.40;2.35;;;;;;;8.73;35.03;96163.13;5049688;28;20021;-65
2022/01/27 10:26:14;;;;;;;2.35;2.15;;;;;;;9.12;35.03;96157.22;5051035;28;20097;-65
2022/01/27 10:29:08;;;;;;;3.88;2.40;;;;;;;9.17;34.46;96159.09;5050249;28;20024;-65
2022/01/27 10:31:38;;;;;;;3.22;2.63;;;;;;;8.88;34.72;96132.34;5050587;28;20417;-66
2022/01/27 10:34:06;;;;;;;2.53;1.90;;;;;;;9.17;34.60;96172.34;5050377;28;20103;-65
2022/01/27 10:36:40;;;;;;;5.03;2.22;;;;;;;9.39;33.99;96156.88;5050330;28;20024;-65
2022/01/27 10:39:05;;;;;;;2.88;2.20;;;;;;;9.47;33.73;96168.78;5050161;28;20029;-65
2022/01/27 10:41:33;;;;;;;3.00;2.20;;;;;;;9.14;33.44;96165.72;5050596;28;20025;-65
2022/01/27 10:44:11;;;;;;;4.18;2.03;;;;;;;9.71;32.88;96159.13;5049503;28;20031;-64
2022/01/27 10:46:43;;;;;;;2.85;2.00;;;;;;;9.60;33.34;96149.63;5050203;28;20220;-65
2022/01/27 10:49:16;;;;;;;3.67;2.15;;;;;;;9.77;32.58;96160.69;5050325;28;20028;-67
2022/01/27 10:51:51;;;;;;;3.50;2.53;;;;;;;10.18;32.04;96141.06;5032634;28;20028;-65
2022/01/27 10:54:33;;;;;;;3.53;1.67;;;;;;;9.86;32.46;96150.28;5049919;28;20108;-66
2022/01/27 10:57:01;;;;;;;;;;;;;;;9.98;32.16;96163.25;5050433;28;20475;-63
2022/01/27 10:59:28;;;;;;;10.88;1.65;;;;;;;9.50;31.50;96139.03;5034435;28;19923;-67
2022/01/27 11:01:55;;;;;;;5.97;2.50;;;;;;;10.08;31.77;96144.56;5049721;28;20071;-63
2022/01/27 11:04:31;;;;;;;2.97;1.77;;;;;;;9.67;31.75;96171.38;5049430;28;20084;-63
2022/01/27 11:06:59;;;;;;;2.75;1.80;;;;;;;10.04;31.16;96157.66;5049481;28;20078;-63
2022/01/27 11:09:29;;;;;;;7.07;2.55;;;;;;;10.24;30.76;96130.16;5048704;28;20166;-63
2022/01/27 11:11:56;;;;;;;3.28;2.00;;;;;;;9.74;31.85;96137.34;5048843;28;20020;-63
2022/01/27 11:14:25;;;;;;;4.25;2.28;;;;;;;10.31;30.80;96141.28;5048568;28;20505;-63
2022/01/27 11:16:56;;;;;;;6.45;2.30;;;;;;;9.98;30.68;96136.66;5049330;28;20029;-63
2022/01/27 11:22:01;;;;;;;2.30;2.10;;;;;;;9.74;30.01;96123.28;5050036;28;20025;-63
2022/01/27 11:24:54;;;;;;;5.55;2.40;;;;;;;10.24;30.22;96126.72;5049581;28;20025;-63
2022/01/27 11:27:22;;;;;;;2.10;1.90;;;;;;;9.88;30.79;96122.38;5048047;28;20025;-64
2022/01/27 11:29:55;;;;;;;6.93;2.60;;;;;;;9.99;30.09;96125.78;5049683;28;20108;-63
2022/01/27 11:32:32;;;;;;;3.35;1.90;;;;;;;10.10;29.74;96102.59;5049671;28;20028;-64
2022/01/27 11:34:57;;;;;;;2.70;2.50;;;;;;;10.83;29.26;96099.84;5048874;28;20029;-63
2022/01/27 11:37:34;;;;;;;4.50;2.33;;;;;;;10.10;29.99;96103.38;5047936;28;20036;-63
2022/01/27 11:40:08;;;;;;;5.55;3.28;;;;;;;10.70;29.79;96108.50;5048143;28;20047;-62
2022/01/27 11:42:34;;;;;;;5.28;2.58;;;;;;;10.03;30.04;96112.72;5047653;28;20474;-63
2022/01/27 11:45:22;;;;;;;6.97;2.78;;;;;;;9.82;29.56;96110.19;5048883;28;20032;-63
2022/01/27 11:47:49;;;;;;;4.93;2.00;;;;;;;9.65;29.80;96099.13;5049008;28;20032;-63
2022/01/27 11:50:36;;;;;;;2.70;2.05;;;;;;;9.76;29.85;96102.53;5049535;28;20018;-63
2022/01/27 11:53:04;;;;;;;5.25;2.90;;;;;;;10.09;29.17;96103.66;5047788;28;20032;-62
2022/01/27 11:55:44;;;;;;;2.85;1.98;;;;;;;9.83;29.97;96081.78;5049335;28;20021;-65
2022/01/27 11:58:18;;;;;;;6.30;2.90;;;;;;;9.69;29.73;96099.38;5044721;28;20029;-65
2022/01/27 12:01:19;;;;;;;2.15;1.80;;;;;;;10.07;29.61;96085.31;5048961;28;20029;-64
2022/01/27 12:04:06;;;;;;;3.70;2.05;;;;;;;9.61;30.11;96077.63;5048989;28;20024;-64
2022/01/27 12:06:35;;;;;;;3.42;2.30;;;;;;;10.12;29.76;96092.44;5048948;28;20025;-64
2022/01/27 12:09:19;;;;;;;3.35;2.40;;;;;;;9.87;29.86;96093.41;5049237;28;20025;-65
2022/01/27 12:11:46;;;;;;;15.45;2.40;;;;;;;9.37;30.47;96087.34;5031469;28;20032;-65
2022/01/27 12:14:13;;;;;;;4.18;2.80;;;;;;;10.20;29.73;96080.44;5048162;28;20481;-65